createdAt,value
2019-05-18T00:00:59.349Z,21.60
2019-05-18T00:03:28.696Z,20.63
2019-05-18T00:05:58.051Z,19.37
2019-05-18T00:08:27.387Z,21.70
2019-05-18T00:10:56.755Z,21.03
2019-05-18T00:13:26.186Z,20.87
2019-05-18T00:15:55.583Z,19.73
2019-05-18T00:18:25.074Z,22.17
2019-05-18T00:20:54.449Z,20.77
2019-05-18T00:23:23.774Z,21.03
2019-05-18T00:25:53.085Z,19.53
2019-05-18T00:28:22.492Z,19.53
2019-05-18T00:30:51.820Z,20.10
2019-05-18T00:33:21.157Z,21.40
2019-05-18T00:35:51.621Z,21.63
2019-05-18T00:38:20.947Z,22.10
2019-05-18T00:40:50.288Z,22.87
2019-05-18T00:43:19.639Z,21.67
2019-05-18T00:45:49.062Z,21.53
2019-05-18T00:48:18.384Z,21.80
2019-05-18T00:50:47.737Z,20.47
2019-05-18T00:53:17.135Z,21.43
2019-05-18T00:55:46.541Z,22.07
2019-05-18T00:58:15.904Z,22.60
2019-05-18T01:00:45.587Z,21.10
2019-05-18T01:03:14.944Z,22.00
2019-05-18T01:05:44.235Z,21.97
2019-05-18T01:08:13.648Z,19.03
2019-05-18T01:10:44.021Z,20.27
2019-05-18T01:13:13.350Z,20.10
2019-05-18T01:15:42.653Z,18.37
2019-05-18T01:18:12.086Z,17.57
2019-05-18T01:20:41.625Z,18.50
2019-05-18T01:23:11.074Z,18.10
2019-05-18T01:25:40.412Z,17.83
2019-05-18T01:28:09.855Z,18.37
2019-05-18T01:30:39.238Z,19.80
2019-05-18T01:33:08.545Z,18.10
2019-05-18T01:35:37.876Z,16.53
2019-05-18T01:38:07.243Z,16.83
2019-05-18T01:40:36.570Z,18.17
2019-05-18T01:43:05.952Z,19.03
2019-05-18T01:45:35.308Z,18.17
2019-05-18T01:48:13.205Z,18.93
2019-05-18T01:50:54.671Z,19.67
2019-05-18T01:53:24.007Z,21.27
2019-05-18T01:55:53.345Z,20.20
2019-05-18T01:58:22.642Z,20.83
2019-05-18T02:00:51.973Z,21.90
2019-05-18T02:03:21.354Z,22.30
2019-05-18T02:05:50.783Z,22.07
2019-05-18T02:08:20.087Z,20.23
2019-05-18T02:10:49.428Z,19.83
2019-05-18T02:13:18.799Z,21.07
2019-05-18T02:15:48.175Z,20.97
2019-05-18T02:18:28.832Z,21.73
2019-05-18T02:20:48.595Z,22.30
2019-05-18T02:23:18.008Z,21.37
2019-05-18T02:25:47.347Z,20.03
2019-05-18T02:28:16.659Z,19.93
2019-05-18T02:30:46.103Z,19.70
2019-05-18T02:33:15.403Z,21.13
2019-05-18T02:35:44.691Z,19.00
2019-05-18T02:38:17.181Z,19.67
2019-05-18T02:40:48.093Z,24.00
2019-05-18T02:43:17.771Z,22.47
2019-05-18T02:45:47.044Z,21.30
2019-05-18T02:48:16.466Z,20.17
2019-05-18T02:50:45.794Z,22.63
2019-05-18T02:53:16.949Z,20.47
2019-05-18T02:55:46.362Z,21.47
2019-05-18T02:58:15.813Z,20.00
2019-05-18T03:00:45.245Z,20.17
2019-05-18T03:03:14.579Z,22.03
2019-05-18T03:05:44.830Z,21.90
2019-05-18T03:08:14.230Z,20.90
2019-05-18T03:10:43.633Z,20.30
2019-05-18T03:13:13.202Z,24.20
2019-05-18T03:15:42.522Z,37.33
2019-05-18T03:18:11.914Z,21.03
2019-05-18T03:20:41.342Z,24.13
2019-05-18T03:23:10.735Z,24.33
2019-05-18T03:25:40.138Z,24.03
2019-05-18T03:28:09.478Z,24.07
2019-05-18T03:30:38.860Z,22.30
2019-05-18T03:33:08.184Z,24.30
2019-05-18T03:35:37.521Z,23.57
2019-05-18T03:38:06.878Z,24.90
2019-05-18T03:40:36.237Z,25.03
2019-05-18T03:43:05.961Z,24.40
2019-05-18T03:45:35.361Z,24.10
2019-05-18T03:48:04.848Z,23.97
2019-05-18T03:50:34.180Z,24.97
2019-05-18T03:53:03.495Z,29.47
2019-05-18T03:55:33.298Z,23.83
2019-05-18T03:58:02.679Z,25.23
2019-05-18T04:00:31.983Z,24.13
2019-05-18T04:03:01.354Z,21.60
2019-05-18T04:05:30.912Z,20.30
2019-05-18T04:08:00.207Z,25.27
2019-05-18T04:10:29.563Z,21.97
2019-05-18T04:12:58.878Z,23.63
2019-05-18T04:15:28.204Z,24.90
2019-05-18T04:17:57.492Z,21.77
2019-05-18T04:20:26.998Z,25.90
2019-05-18T04:22:56.927Z,23.37
2019-05-18T04:25:26.217Z,22.33
2019-05-18T04:27:55.650Z,23.77
2019-05-18T04:30:25.111Z,24.03
2019-05-18T04:32:54.664Z,21.90
2019-05-18T04:35:23.965Z,24.20
2019-05-18T04:37:53.352Z,22.37
2019-05-18T04:40:22.789Z,22.63
2019-05-18T04:42:52.130Z,23.70
2019-05-18T04:45:23.484Z,25.93
2019-05-18T04:47:54.417Z,35.53
2019-05-18T04:50:23.822Z,24.43
2019-05-18T04:52:53.184Z,23.83
2019-05-18T04:55:22.642Z,24.80
2019-05-18T04:57:52.058Z,23.40
2019-05-18T05:00:21.362Z,23.83
2019-05-18T05:02:50.768Z,22.63
2019-05-18T05:05:20.116Z,23.53
2019-05-18T05:07:49.577Z,23.10
2019-05-18T05:10:19.028Z,23.77
2019-05-18T05:12:48.335Z,24.40
2019-05-18T05:15:17.765Z,23.30
2019-05-18T05:17:47.147Z,24.03
2019-05-18T05:20:19.828Z,23.60
2019-05-18T05:22:47.599Z,23.13
2019-05-18T05:25:16.957Z,23.50
2019-05-18T05:27:46.269Z,23.00
2019-05-18T05:30:15.940Z,23.77
2019-05-18T05:32:45.239Z,23.27
2019-05-18T05:35:14.679Z,25.47
2019-05-18T05:37:44.044Z,25.50
2019-05-18T05:40:13.416Z,23.97
2019-05-18T05:42:42.858Z,23.63
2019-05-18T05:45:12.416Z,23.20
2019-05-18T05:47:41.811Z,23.63
2019-05-18T05:50:11.877Z,24.07
2019-05-18T05:52:41.418Z,23.83
2019-05-18T05:55:11.287Z,23.73
2019-05-18T05:57:40.675Z,23.40
2019-05-18T06:00:11.011Z,22.90
2019-05-18T06:02:59.493Z,23.83
2019-05-18T06:05:28.942Z,22.63
2019-05-18T06:07:58.363Z,23.70
2019-05-18T06:10:27.821Z,22.40
2019-05-18T06:12:57.245Z,22.73
2019-05-18T06:15:26.616Z,24.17
2019-05-18T06:17:56.002Z,22.80
2019-05-18T06:20:25.586Z,23.10
2019-05-18T06:22:55.034Z,23.77
2019-05-18T06:25:24.463Z,22.90
2019-05-18T06:27:53.880Z,23.67
2019-05-18T06:30:23.423Z,23.80
2019-05-18T06:32:52.842Z,21.87
2019-05-18T06:35:22.344Z,20.90
2019-05-18T06:37:51.744Z,22.63
2019-05-18T06:40:21.283Z,21.23
2019-05-18T06:42:50.813Z,21.27
2019-05-18T06:45:20.484Z,22.40
2019-05-18T06:47:49.961Z,20.70
2019-05-18T06:50:24.350Z,20.17
2019-05-18T06:52:53.792Z,21.80
2019-05-18T06:55:23.193Z,22.43
2019-05-18T06:57:52.749Z,19.63
2019-05-18T07:00:22.381Z,20.97
2019-05-18T07:02:51.876Z,20.03
2019-05-18T07:05:21.891Z,19.77
2019-05-18T07:07:51.486Z,18.37
2019-05-18T07:10:20.828Z,19.17
2019-05-18T07:12:50.230Z,19.83
2019-05-18T07:15:20.015Z,19.50
2019-05-18T07:17:50.839Z,18.23
2019-05-18T07:20:25.635Z,17.77
2019-05-18T07:22:55.080Z,17.77
2019-05-18T07:25:28.909Z,17.97
2019-05-18T07:27:58.496Z,19.33
2019-05-18T07:30:29.705Z,16.27
2019-05-18T07:32:59.140Z,16.30
2019-05-18T07:35:28.583Z,16.93
2019-05-18T07:37:58.063Z,18.00
2019-05-18T07:40:27.552Z,16.93
2019-05-18T07:42:58.905Z,17.42
2019-05-18T07:45:28.067Z,16.97
2019-05-18T07:47:57.531Z,17.10
2019-05-18T07:50:26.972Z,18.10
2019-05-18T07:52:57.873Z,16.37
2019-05-18T07:55:27.202Z,16.82
2019-05-18T07:57:56.580Z,17.23
2019-05-18T08:00:26.207Z,17.67
2019-05-18T08:02:55.632Z,17.82
2019-05-18T08:05:25.341Z,17.15
2019-05-18T08:07:54.805Z,17.57
2019-05-18T08:10:37.567Z,19.15
2019-05-18T08:13:07.544Z,18.37
2019-05-18T08:15:39.346Z,19.27
2019-05-18T08:18:08.695Z,18.57
2019-05-18T08:20:38.043Z,16.17
2019-05-18T08:23:07.430Z,15.80
2019-05-18T08:25:36.890Z,16.60
2019-05-18T08:28:06.232Z,15.55
2019-05-18T08:30:35.685Z,13.03
2019-05-18T08:33:06.476Z,13.10
2019-05-18T08:35:35.917Z,13.93
2019-05-18T08:38:05.315Z,12.68
2019-05-18T08:40:34.852Z,11.57
2019-05-18T08:43:06.041Z,12.93
2019-05-18T08:45:35.436Z,13.70
2019-05-18T08:48:04.900Z,13.13
2019-05-18T08:50:34.324Z,14.30
2019-05-18T08:53:04.597Z,14.50
2019-05-18T08:55:34.059Z,13.48
2019-05-18T08:58:05.443Z,16.60
2019-05-18T09:00:35.778Z,15.80
2019-05-18T09:03:05.198Z,15.28
2019-05-18T09:05:34.616Z,15.53
2019-05-18T09:08:04.049Z,15.15
2019-05-18T09:10:33.461Z,14.98
2019-05-18T09:13:04.839Z,14.00
2019-05-18T09:15:34.184Z,14.47
2019-05-18T09:18:05.025Z,14.87
2019-05-18T09:20:34.713Z,13.48
2019-05-18T09:23:04.496Z,15.13
2019-05-18T09:25:34.307Z,15.23
2019-05-18T09:28:03.704Z,13.45
2019-05-18T09:30:33.107Z,12.85
2019-05-18T09:33:02.863Z,12.75
2019-05-18T09:35:32.183Z,12.85
2019-05-18T09:38:01.616Z,10.90
2019-05-18T09:40:31.802Z,11.10
2019-05-18T09:43:01.265Z,11.65
2019-05-18T09:45:31.781Z,10.88
2019-05-18T09:48:01.264Z,9.40
2019-05-18T09:50:30.728Z,10.20
2019-05-18T09:53:00.152Z,9.65
2019-05-18T09:55:31.304Z,9.63
2019-05-18T09:58:00.782Z,8.63
2019-05-18T10:00:38.264Z,9.13
2019-05-18T10:03:02.979Z,7.92
2019-05-18T10:05:32.307Z,8.73
2019-05-18T10:08:01.665Z,10.13
2019-05-18T10:10:33.607Z,8.50
2019-05-18T10:13:02.156Z,8.85
2019-05-18T10:15:31.492Z,9.75
2019-05-18T10:18:00.924Z,8.90
2019-05-18T10:20:30.355Z,9.63
2019-05-18T10:23:12.456Z,11.22
2019-05-18T10:25:31.057Z,8.30
2019-05-18T10:28:00.395Z,8.95
2019-05-18T10:30:29.830Z,8.75
2019-05-18T10:32:59.250Z,8.98
2019-05-18T10:35:28.557Z,8.88
2019-05-18T10:37:57.920Z,9.35
2019-05-18T10:40:32.222Z,9.45
2019-05-18T10:43:01.687Z,8.75
2019-05-18T10:45:31.006Z,8.68
2019-05-18T10:48:01.468Z,8.75
2019-05-18T10:50:30.978Z,8.03
2019-05-18T10:53:03.420Z,8.50
2019-05-18T10:55:36.083Z,9.83
2019-05-18T10:58:05.563Z,7.33
2019-05-18T11:00:34.939Z,7.87
2019-05-18T11:03:04.319Z,9.58
2019-05-18T11:05:33.742Z,7.58
2019-05-18T11:08:05.333Z,8.50
2019-05-18T11:10:34.747Z,7.45
2019-05-18T11:13:04.048Z,7.05
2019-05-18T11:15:33.352Z,7.63
2019-05-18T11:18:02.798Z,6.42
2019-05-18T11:20:33.090Z,8.28
2019-05-18T11:23:02.628Z,6.67
2019-05-18T11:25:32.004Z,7.85
2019-05-18T11:28:01.428Z,6.95
2019-05-18T11:30:31.082Z,5.50
2019-05-18T11:33:00.398Z,10.00
2019-05-18T11:35:32.153Z,12.10
2019-05-18T11:38:01.575Z,5.35
2019-05-18T11:40:30.912Z,6.65
2019-05-18T11:43:00.331Z,12.10
2019-05-18T11:45:29.892Z,6.92
2019-05-18T11:47:59.378Z,13.93
2019-05-18T11:50:28.887Z,5.67
2019-05-18T11:52:58.232Z,5.85
2019-05-18T11:55:27.753Z,7.00
2019-05-18T11:57:57.263Z,5.75
2019-05-18T12:00:31.500Z,5.24
2019-05-18T12:03:00.373Z,5.10
2019-05-18T12:05:29.826Z,5.25
2019-05-18T12:07:59.230Z,4.80
2019-05-18T12:10:28.603Z,4.72
2019-05-18T12:12:57.985Z,4.90
2019-05-18T12:15:27.557Z,5.43
2019-05-18T12:17:56.972Z,5.00
2019-05-18T12:20:26.427Z,6.85
2019-05-18T12:22:55.827Z,5.57
2019-05-18T12:25:25.245Z,5.50
2019-05-18T12:27:56.169Z,5.13
2019-05-18T12:30:25.937Z,4.77
2019-05-18T12:32:55.362Z,7.70
2019-05-18T12:35:28.334Z,5.10
2019-05-18T12:37:58.850Z,5.13
2019-05-18T12:40:28.355Z,4.80
2019-05-18T12:42:59.155Z,4.97
2019-05-18T12:45:29.257Z,5.30
2019-05-18T12:47:59.069Z,5.53
2019-05-18T12:50:30.431Z,4.60
2019-05-18T12:53:02.616Z,4.33
2019-05-18T12:55:31.636Z,5.03
2019-05-18T12:58:01.334Z,5.20
2019-05-18T13:00:30.941Z,4.77
2019-05-18T13:03:06.498Z,4.47
2019-05-18T13:05:35.908Z,4.60
2019-05-18T13:08:05.248Z,4.97
2019-05-18T13:10:34.677Z,4.07
2019-05-18T13:13:04.169Z,3.97
2019-05-18T13:15:33.566Z,6.67
2019-05-18T13:18:35.354Z,5.27
2019-05-18T13:21:07.891Z,3.90
2019-05-18T13:23:37.281Z,3.77
2019-05-18T13:26:06.691Z,4.13
2019-05-18T13:28:36.139Z,3.97
2019-05-18T13:31:06.886Z,3.70
2019-05-18T13:33:36.255Z,3.53
2019-05-18T13:36:05.591Z,3.97
2019-05-18T13:38:35.005Z,4.27
2019-05-18T13:41:04.575Z,3.97
2019-05-18T13:43:34.154Z,4.23
2019-05-18T13:46:03.659Z,5.47
2019-05-18T13:48:33.197Z,3.93
2019-05-18T13:51:02.659Z,4.87
2019-05-18T13:53:32.166Z,4.07
2019-05-18T13:56:01.780Z,4.10
2019-05-18T13:58:31.265Z,3.97
2019-05-18T14:01:00.699Z,3.60
2019-05-18T14:03:30.210Z,4.20
2019-05-18T14:06:01.573Z,4.60
2019-05-18T14:08:30.841Z,3.57
2019-05-18T14:11:00.391Z,3.30
2019-05-18T14:13:30.015Z,4.27
2019-05-18T14:15:59.646Z,3.80
2019-05-18T14:18:29.307Z,4.50
2019-05-18T14:21:00.278Z,4.20
2019-05-18T14:23:29.942Z,5.07
2019-05-18T14:25:59.375Z,4.10
2019-05-18T14:28:28.847Z,4.63
2019-05-18T14:30:58.248Z,4.40
2019-05-18T14:33:27.746Z,5.03
2019-05-18T14:35:57.273Z,4.80
2019-05-18T14:38:26.635Z,6.10
2019-05-18T14:40:57.503Z,5.40
2019-05-18T14:43:28.338Z,4.37
2019-05-18T14:45:57.770Z,4.30
2019-05-18T14:48:27.223Z,4.63
2019-05-18T14:50:56.519Z,3.73
2019-05-18T14:53:29.112Z,4.10
2019-05-18T14:55:58.639Z,4.67
2019-05-18T14:58:28.381Z,3.80
2019-05-18T15:00:57.882Z,4.90
2019-05-18T15:03:27.330Z,3.90
2019-05-18T15:05:56.769Z,4.10
2019-05-18T15:08:26.593Z,4.30
2019-05-18T15:10:55.955Z,3.70
2019-05-18T15:13:25.440Z,4.80
2019-05-18T15:15:54.949Z,3.93
2019-05-18T15:18:24.413Z,5.90
2019-05-18T15:20:53.905Z,3.57
2019-05-18T15:23:23.286Z,3.93
2019-05-18T15:25:52.739Z,6.57
2019-05-18T15:28:22.043Z,4.67
2019-05-18T15:30:51.458Z,4.17
2019-05-18T15:33:20.798Z,4.27
2019-05-18T15:35:50.232Z,4.30
2019-05-18T15:38:19.632Z,5.03
2019-05-18T15:40:49.055Z,4.40
2019-05-18T15:43:18.443Z,4.57
2019-05-18T15:45:47.915Z,4.03
2019-05-18T15:48:17.337Z,4.00
2019-05-18T15:50:46.731Z,3.97
2019-05-18T15:53:16.130Z,4.27
2019-05-18T15:55:47.542Z,5.67
2019-05-18T15:58:16.586Z,5.27
2019-05-18T16:00:45.925Z,4.57
2019-05-18T16:03:15.324Z,6.77
2019-05-18T16:05:44.743Z,4.93
2019-05-18T16:08:14.361Z,6.47
2019-05-18T16:10:43.789Z,5.10
2019-05-18T16:13:13.135Z,4.40
2019-05-18T16:15:42.585Z,4.27
2019-05-18T16:18:11.970Z,4.00
2019-05-18T16:20:41.439Z,4.07
2019-05-18T16:23:10.823Z,4.53
2019-05-18T16:25:40.439Z,7.57
2019-05-18T16:28:09.979Z,6.77
2019-05-18T16:30:39.590Z,8.07
2019-05-18T16:33:09.003Z,4.97
2019-05-18T16:35:38.388Z,5.07
2019-05-18T16:38:07.832Z,4.43
2019-05-18T16:40:38.272Z,7.67
2019-05-18T16:43:07.715Z,5.47
2019-05-18T16:45:37.048Z,4.50
2019-05-18T16:48:06.556Z,4.40
2019-05-18T16:50:35.912Z,4.67
2019-05-18T16:53:05.450Z,5.33
2019-05-18T16:55:34.763Z,4.87
2019-05-18T16:58:04.178Z,4.50
2019-05-18T17:00:33.551Z,3.80
2019-05-18T17:03:03.071Z,6.77
2019-05-18T17:05:32.429Z,6.77
2019-05-18T17:08:01.860Z,8.37
2019-05-18T17:10:31.206Z,15.00
2019-05-18T17:13:00.611Z,5.20
2019-05-18T17:15:30.018Z,4.93
2019-05-18T17:17:59.553Z,4.50
2019-05-18T17:20:28.871Z,4.17
2019-05-18T17:22:58.389Z,4.50
2019-05-18T17:25:27.722Z,6.97
2019-05-18T17:27:57.084Z,5.17
2019-05-18T17:30:27.039Z,4.60
2019-05-18T17:32:56.338Z,3.80
2019-05-18T17:35:25.742Z,4.33
2019-05-18T17:37:55.157Z,4.97
2019-05-18T17:40:24.573Z,3.80
2019-05-18T17:42:53.944Z,4.37
2019-05-18T17:45:23.529Z,3.73
2019-05-18T17:47:52.829Z,5.27
2019-05-18T17:50:22.254Z,6.60
2019-05-18T17:52:51.799Z,3.60
2019-05-18T17:55:21.167Z,3.40
2019-05-18T17:57:50.594Z,3.80
2019-05-18T18:00:20.412Z,3.57
2019-05-18T18:02:49.784Z,5.27
2019-05-18T18:05:19.239Z,4.50
2019-05-18T18:07:48.589Z,3.57
2019-05-18T18:10:18.129Z,4.00
2019-05-18T18:12:47.506Z,4.13
2019-05-18T18:15:17.453Z,3.70
2019-05-18T18:17:46.866Z,4.33
2019-05-18T18:20:16.723Z,4.00
2019-05-18T18:22:46.260Z,4.27
2019-05-18T18:25:15.854Z,3.77
2019-05-18T18:27:45.295Z,4.00
2019-05-18T18:30:15.649Z,4.23
2019-05-18T18:32:45.184Z,4.70
2019-05-18T18:35:14.903Z,4.70
2019-05-18T18:37:44.313Z,5.57
2019-05-18T18:40:13.900Z,5.27
2019-05-18T18:42:43.328Z,4.97
2019-05-18T18:45:13.073Z,5.73
2019-05-18T18:47:42.509Z,6.87
2019-05-18T18:50:12.177Z,5.27
2019-05-18T18:52:41.615Z,6.43
2019-05-18T18:55:11.736Z,6.37
2019-05-18T18:57:42.212Z,5.17
2019-05-18T19:00:12.408Z,6.20
2019-05-18T19:02:41.843Z,6.27
2019-05-18T19:05:11.576Z,10.07
2019-05-18T19:07:42.030Z,9.07
2019-05-18T19:10:11.985Z,6.70
2019-05-18T19:12:41.416Z,6.67
2019-05-18T19:15:11.760Z,6.30
2019-05-18T19:17:41.182Z,6.87
2019-05-18T19:20:12.303Z,5.77
2019-05-18T19:22:41.614Z,5.03
2019-05-18T19:25:11.523Z,5.03
2019-05-18T19:27:53.759Z,5.70
2019-05-18T19:30:12.212Z,5.27
2019-05-18T19:32:41.590Z,6.57
2019-05-18T19:35:11.153Z,10.60
2019-05-18T19:37:40.611Z,12.80
2019-05-18T19:40:10.138Z,12.10
2019-05-18T19:42:39.624Z,15.77
2019-05-18T19:45:10.477Z,15.23
2019-05-18T19:47:39.947Z,11.03
2019-05-18T19:50:10.325Z,9.37
2019-05-18T19:52:39.799Z,8.83
2019-05-18T19:55:09.734Z,10.93
2019-05-18T19:57:39.223Z,18.70
2019-05-18T20:00:10.382Z,15.97
2019-05-18T20:02:39.816Z,8.07
2019-05-18T20:05:09.890Z,8.07
2019-05-18T20:07:39.390Z,8.90
2019-05-18T20:10:10.069Z,10.50
2019-05-18T20:12:44.011Z,8.87
2019-05-18T20:15:14.706Z,12.70
2019-05-18T20:17:44.145Z,12.07
2019-05-18T20:20:13.647Z,8.53
2019-05-18T20:22:43.100Z,7.20
2019-05-18T20:25:13.476Z,7.20
2019-05-18T20:27:43.037Z,6.83
2019-05-18T20:30:13.189Z,6.63
2019-05-18T20:32:42.668Z,8.77
2019-05-18T20:35:12.403Z,7.33
2019-05-18T20:37:41.946Z,6.57
2019-05-18T20:40:12.146Z,6.73
2019-05-18T20:42:41.609Z,7.17
2019-05-18T20:45:11.283Z,7.30
2019-05-18T20:47:40.777Z,7.50
2019-05-18T20:50:10.397Z,7.03
2019-05-18T20:52:39.791Z,6.70
2019-05-18T20:55:09.366Z,7.20
2019-05-18T20:57:38.761Z,7.60
2019-05-18T21:00:09.072Z,8.00
2019-05-18T21:02:38.508Z,7.87
2019-05-18T21:05:09.665Z,7.93
2019-05-18T21:07:39.077Z,8.20
2019-05-18T21:10:09.274Z,9.13
2019-05-18T21:12:40.202Z,9.83
2019-05-18T21:15:10.406Z,10.27
2019-05-18T21:17:40.100Z,11.97
2019-05-18T21:20:09.803Z,10.80
2019-05-18T21:22:39.232Z,10.20
2019-05-18T21:25:08.937Z,13.80
2019-05-18T21:27:38.266Z,11.27
2019-05-18T21:30:08.160Z,11.87
2019-05-18T21:32:37.502Z,11.63
2019-05-18T21:35:08.453Z,10.47
2019-05-18T21:37:37.853Z,11.30
2019-05-18T21:40:07.913Z,12.43
2019-05-18T21:42:37.435Z,10.03
2019-05-18T21:45:07.118Z,12.33
2019-05-18T21:47:36.534Z,9.93
2019-05-18T21:50:06.423Z,9.90
2019-05-18T21:52:35.975Z,9.13
2019-05-18T21:55:05.708Z,10.30
2019-05-18T21:57:35.157Z,8.57
2019-05-18T22:00:05.469Z,8.23
2019-05-18T22:02:34.862Z,9.20
2019-05-18T22:05:04.497Z,8.10
2019-05-18T22:07:35.559Z,8.83
2019-05-18T22:10:06.536Z,8.03
2019-05-18T22:12:36.011Z,9.70
2019-05-18T22:15:05.901Z,10.10
2019-05-18T22:17:38.724Z,10.70
2019-05-18T22:20:08.208Z,9.40
2019-05-18T22:22:39.818Z,10.03
2019-05-18T22:25:10.842Z,10.13
2019-05-18T22:27:40.195Z,9.80
2019-05-18T22:30:09.512Z,10.00
2019-05-18T22:32:38.916Z,9.63
2019-05-18T22:35:08.312Z,9.47
2019-05-18T22:37:37.711Z,9.40
2019-05-18T22:40:07.082Z,9.00
2019-05-18T22:42:36.482Z,10.23
2019-05-18T22:45:05.888Z,8.63
2019-05-18T22:47:38.452Z,9.73
2019-05-18T22:50:07.528Z,9.90
2019-05-18T22:52:37.110Z,8.47
2019-05-18T22:55:06.472Z,9.10
2019-05-18T22:57:35.873Z,11.33
2019-05-18T23:00:07.037Z,11.77
2019-05-18T23:02:36.480Z,15.67
2019-05-18T23:05:06.325Z,17.07
2019-05-18T23:07:35.839Z,20.33
2019-05-18T23:10:05.614Z,17.87
2019-05-18T23:12:35.048Z,17.70
2019-05-18T23:15:04.636Z,15.80
2019-05-18T23:17:34.123Z,15.47
2019-05-18T23:20:08.436Z,12.53
2019-05-18T23:22:37.868Z,12.67
2019-05-18T23:25:07.373Z,13.53
2019-05-18T23:27:36.809Z,15.43
2019-05-18T23:30:06.239Z,15.93
2019-05-18T23:32:35.648Z,13.83
2019-05-18T23:35:04.928Z,14.07
2019-05-18T23:37:34.331Z,13.60
2019-05-18T23:40:04.125Z,13.50
2019-05-18T23:42:33.530Z,12.77
2019-05-18T23:45:03.181Z,13.73
2019-05-18T23:47:32.522Z,14.10
2019-05-18T23:50:02.053Z,14.83
2019-05-18T23:52:31.447Z,12.57
2019-05-18T23:55:00.910Z,14.90
2019-05-18T23:57:30.229Z,12.70
